createdAt,value
2017-11-16T00:01:55.344Z,10.15
2017-11-16T00:04:21.137Z,10.01
2017-11-16T00:06:46.906Z,10.17
2017-11-16T00:09:12.742Z,10.08
2017-11-16T00:11:38.516Z,9.87
2017-11-16T00:14:04.328Z,9.92
2017-11-16T00:16:30.121Z,9.46
2017-11-16T00:18:56.252Z,9.90
2017-11-16T00:21:22.903Z,10.02
2017-11-16T00:23:48.698Z,10.28
2017-11-16T00:26:14.603Z,9.74
2017-11-16T00:28:40.459Z,9.75
2017-11-16T00:31:06.235Z,9.50
2017-11-16T00:33:32.009Z,9.27
2017-11-16T00:35:57.820Z,9.01
2017-11-16T00:38:23.594Z,9.19
2017-11-16T00:40:49.371Z,9.15
2017-11-16T00:43:15.178Z,9.16
2017-11-16T00:45:40.983Z,9.01
2017-11-16T00:48:06.770Z,9.03
2017-11-16T00:50:32.598Z,9.11
2017-11-16T00:52:58.377Z,9.02
2017-11-16T00:55:24.171Z,9.01
2017-11-16T00:57:50.379Z,9.20
2017-11-16T01:00:16.183Z,9.11
2017-11-16T01:02:41.981Z,9.46
2017-11-16T01:05:07.797Z,10.13
2017-11-16T01:07:33.589Z,9.88
2017-11-16T01:09:59.473Z,9.69
2017-11-16T01:12:25.364Z,9.88
2017-11-16T01:14:51.159Z,9.60
2017-11-16T01:17:16.941Z,9.54
2017-11-16T01:19:43.053Z,9.32
2017-11-16T01:22:08.832Z,9.17
2017-11-16T01:24:34.623Z,9.15
2017-11-16T01:27:00.431Z,9.09
2017-11-16T01:29:26.215Z,9.13
2017-11-16T01:31:51.996Z,9.15
2017-11-16T01:34:17.987Z,9.06
2017-11-16T01:36:44.403Z,9.14
2017-11-16T01:39:10.176Z,9.24
2017-11-16T01:41:35.972Z,9.21
2017-11-16T01:44:01.791Z,9.26
2017-11-16T01:46:27.578Z,9.18
2017-11-16T01:48:53.373Z,9.22
2017-11-16T01:51:19.202Z,9.21
2017-11-16T01:53:44.989Z,9.26
2017-11-16T01:56:10.798Z,9.34
2017-11-16T01:58:36.600Z,9.36
2017-11-16T02:01:02.438Z,9.53
2017-11-16T02:03:28.267Z,9.37
2017-11-16T02:05:54.046Z,9.44
2017-11-16T02:08:19.857Z,9.36
2017-11-16T02:10:45.692Z,9.39
2017-11-16T02:13:11.476Z,9.42
2017-11-16T02:15:37.253Z,9.40
2017-11-16T02:18:03.062Z,9.44
2017-11-16T02:20:28.888Z,9.49
2017-11-16T02:22:55.042Z,9.44
2017-11-16T02:25:20.847Z,9.43
2017-11-16T02:27:46.650Z,9.48
2017-11-16T02:30:12.446Z,9.39
2017-11-16T02:32:38.227Z,9.35
2017-11-16T02:35:04.039Z,9.31
2017-11-16T02:37:29.849Z,9.39
2017-11-16T02:39:55.683Z,9.55
2017-11-16T02:42:21.523Z,9.50
2017-11-16T02:44:47.359Z,9.51
2017-11-16T02:47:13.177Z,9.41
2017-11-16T02:49:38.964Z,9.48
2017-11-16T02:52:04.829Z,9.38
2017-11-16T02:54:30.663Z,9.45
2017-11-16T02:56:56.448Z,9.43
2017-11-16T02:59:22.276Z,9.42
2017-11-16T03:01:48.088Z,9.45
2017-11-16T03:04:13.892Z,9.45
2017-11-16T03:06:39.696Z,9.41
2017-11-16T03:09:05.497Z,9.43
2017-11-16T03:11:31.295Z,9.46
2017-11-16T03:13:57.115Z,9.42
2017-11-16T03:16:22.908Z,9.45
2017-11-16T03:18:48.712Z,9.40
2017-11-16T03:21:14.887Z,9.43
2017-11-16T03:23:40.692Z,9.38
2017-11-16T03:26:06.504Z,9.36
2017-11-16T03:28:32.331Z,9.34
2017-11-16T03:30:58.269Z,9.37
2017-11-16T03:33:24.092Z,9.35
2017-11-16T03:35:49.884Z,9.34
2017-11-16T03:38:15.654Z,9.40
2017-11-16T03:40:41.464Z,9.40
2017-11-16T03:43:07.250Z,9.37
2017-11-16T03:45:33.054Z,9.35
2017-11-16T03:47:58.860Z,9.37
2017-11-16T03:50:24.640Z,9.40
2017-11-16T03:52:50.452Z,9.45
2017-11-16T03:55:16.266Z,9.48
2017-11-16T03:57:42.073Z,9.41
2017-11-16T04:00:07.876Z,9.45
2017-11-16T04:02:33.654Z,9.39
2017-11-16T04:04:59.420Z,9.43
2017-11-16T04:07:25.192Z,9.34
2017-11-16T04:09:51.068Z,9.35
2017-11-16T04:12:16.861Z,9.39
2017-11-16T04:14:42.640Z,9.38
2017-11-16T04:17:08.430Z,9.37
2017-11-16T04:19:34.230Z,9.38
2017-11-16T04:22:00.020Z,9.42
2017-11-16T04:24:25.864Z,9.34
2017-11-16T04:26:51.680Z,9.36
2017-11-16T04:29:17.479Z,9.23
2017-11-16T04:31:43.264Z,9.33
2017-11-16T04:34:09.044Z,9.31
2017-11-16T04:36:34.841Z,9.32
2017-11-16T04:39:00.629Z,9.35
2017-11-16T04:41:26.422Z,9.26
2017-11-16T04:43:52.222Z,9.17
2017-11-16T04:46:18.009Z,9.18
2017-11-16T04:48:43.798Z,9.16
2017-11-16T04:51:09.943Z,9.11
2017-11-16T04:53:35.718Z,9.15
2017-11-16T04:56:01.510Z,9.19
2017-11-16T04:58:27.716Z,9.14
2017-11-16T05:00:53.889Z,9.18
2017-11-16T05:03:19.694Z,9.19
2017-11-16T05:05:45.528Z,9.17
2017-11-16T05:08:11.297Z,9.18
2017-11-16T05:10:37.115Z,9.12
2017-11-16T05:13:02.895Z,9.13
2017-11-16T05:15:28.687Z,9.12
2017-11-16T05:17:54.464Z,9.06
2017-11-16T05:20:20.263Z,9.07
2017-11-16T05:22:46.041Z,9.07
2017-11-16T05:25:11.851Z,9.05
2017-11-16T05:27:38.044Z,9.06
2017-11-16T05:30:03.837Z,9.04
2017-11-16T05:32:29.622Z,9.09
2017-11-16T05:34:55.437Z,9.14
2017-11-16T05:37:21.228Z,9.10
2017-11-16T05:39:47.016Z,9.16
2017-11-16T05:42:12.823Z,9.12
2017-11-16T05:44:38.600Z,9.10
2017-11-16T05:47:04.401Z,9.12
2017-11-16T05:49:30.198Z,9.10
2017-11-16T05:51:55.988Z,9.13
2017-11-16T05:54:21.771Z,9.09
2017-11-16T05:56:47.582Z,9.11
2017-11-16T05:59:13.383Z,9.17
2017-11-16T06:01:39.188Z,9.17
2017-11-16T06:04:05.004Z,9.22
2017-11-16T06:06:30.821Z,9.25
2017-11-16T06:08:56.608Z,9.21
2017-11-16T06:11:22.417Z,9.13
2017-11-16T06:13:48.204Z,9.20
2017-11-16T06:16:13.968Z,9.17
2017-11-16T06:18:39.745Z,9.11
2017-11-16T06:21:05.528Z,9.09
2017-11-16T06:23:31.343Z,9.05
2017-11-16T06:25:57.127Z,9.06
2017-11-16T06:28:23.016Z,9.04
2017-11-16T06:30:48.824Z,8.96
2017-11-16T06:33:14.601Z,8.95
2017-11-16T06:35:40.385Z,8.98
2017-11-16T06:38:06.441Z,9.08
2017-11-16T06:40:32.256Z,8.98
2017-11-16T06:42:58.045Z,8.89
2017-11-16T06:45:23.832Z,8.97
2017-11-16T06:47:49.628Z,8.95
2017-11-16T06:50:15.401Z,8.96
2017-11-16T06:52:41.239Z,9.02
2017-11-16T06:55:07.028Z,8.98
2017-11-16T06:57:32.828Z,8.95
2017-11-16T06:59:58.899Z,9.00
2017-11-16T07:02:24.669Z,8.90
2017-11-16T07:04:50.435Z,8.98
2017-11-16T07:07:16.250Z,8.96
2017-11-16T07:09:42.037Z,8.90
2017-11-16T07:12:07.820Z,8.96
2017-11-16T07:14:33.673Z,8.95
2017-11-16T07:16:59.429Z,8.93
2017-11-16T07:19:25.233Z,8.99
2017-11-16T07:21:51.060Z,9.04
2017-11-16T07:24:16.850Z,9.17
2017-11-16T07:26:42.676Z,9.04
2017-11-16T07:29:08.453Z,9.11
2017-11-16T07:31:34.238Z,9.09
2017-11-16T07:34:00.044Z,9.10
2017-11-16T07:36:25.854Z,9.02
2017-11-16T07:38:52.402Z,9.06
2017-11-16T07:41:19.307Z,9.05
2017-11-16T07:43:45.518Z,9.09
2017-11-16T07:46:12.254Z,9.34
2017-11-16T07:48:38.362Z,9.47
2017-11-16T07:51:04.462Z,9.25
2017-11-16T07:53:31.065Z,9.13
2017-11-16T07:55:57.366Z,9.16
2017-11-16T07:58:23.858Z,9.16
2017-11-16T08:00:51.284Z,9.15
2017-11-16T08:03:18.037Z,9.11
2017-11-16T08:05:44.831Z,9.14
2017-11-16T08:08:11.250Z,9.11
2017-11-16T08:10:38.106Z,9.11
2017-11-16T08:13:05.348Z,9.09
2017-11-16T08:15:31.651Z,9.06
2017-11-16T08:17:58.607Z,9.09
2017-11-16T08:20:25.282Z,9.11
2017-11-16T08:22:51.305Z,9.12
2017-11-16T08:25:17.817Z,9.07
2017-11-16T08:27:43.674Z,9.04
2017-11-16T08:30:09.505Z,9.12
2017-11-16T08:32:35.510Z,9.16
2017-11-16T08:35:01.644Z,9.20
2017-11-16T08:37:27.691Z,9.19
2017-11-16T08:39:54.857Z,9.18
2017-11-16T08:42:20.973Z,9.16
2017-11-16T08:44:46.803Z,9.21
2017-11-16T08:47:12.748Z,9.19
2017-11-16T08:49:39.239Z,9.13
2017-11-16T08:52:05.673Z,9.15
2017-11-16T08:54:31.868Z,9.23
2017-11-16T08:56:57.685Z,9.21
2017-11-16T08:59:23.546Z,9.26
2017-11-16T09:01:50.298Z,9.19
2017-11-16T09:04:16.139Z,9.22
2017-11-16T09:06:42.396Z,9.20
2017-11-16T09:09:08.249Z,9.23
2017-11-16T09:11:34.666Z,9.26
2017-11-16T09:14:00.949Z,9.27
2017-11-16T09:16:27.553Z,9.23
2017-11-16T09:18:53.357Z,9.34
2017-11-16T09:21:19.169Z,9.33
2017-11-16T09:23:45.280Z,9.27
2017-11-16T09:26:11.122Z,9.30
2017-11-16T09:28:36.947Z,9.29
2017-11-16T09:31:02.757Z,9.29
2017-11-16T09:33:28.572Z,9.31
2017-11-16T09:35:54.751Z,9.31
2017-11-16T09:38:20.683Z,9.37
2017-11-16T09:40:47.217Z,9.35
2017-11-16T09:43:16.810Z,9.32
2017-11-16T09:45:43.537Z,9.37
2017-11-16T09:48:09.340Z,9.36
2017-11-16T09:50:35.136Z,9.35
2017-11-16T09:53:01.340Z,9.36
2017-11-16T09:55:27.144Z,9.36
2017-11-16T09:57:52.977Z,9.40
2017-11-16T10:00:20.111Z,9.39
2017-11-16T10:02:47.544Z,9.37
2017-11-16T10:05:13.341Z,9.36
2017-11-16T10:07:39.499Z,9.36
2017-11-16T10:10:05.441Z,9.29
2017-11-16T10:12:32.833Z,9.35
2017-11-16T10:15:01.087Z,9.45
2017-11-16T10:17:26.890Z,9.42
2017-11-16T10:19:52.684Z,9.43
2017-11-16T10:22:19.505Z,9.53
2017-11-16T10:24:45.384Z,9.48
2017-11-16T10:27:11.245Z,9.37
2017-11-16T10:29:37.388Z,9.35
2017-11-16T10:32:03.182Z,9.45
2017-11-16T10:34:28.965Z,9.45
2017-11-16T10:36:54.794Z,9.43
2017-11-16T10:39:20.591Z,9.47
2017-11-16T10:41:46.523Z,9.53
2017-11-16T10:44:13.057Z,9.52
2017-11-16T10:46:39.917Z,9.55
2017-11-16T10:49:06.805Z,9.50
2017-11-16T10:51:33.251Z,9.42
2017-11-16T10:54:00.689Z,9.37
2017-11-16T10:56:26.996Z,9.20
2017-11-16T10:58:54.363Z,9.31
2017-11-16T11:01:20.712Z,9.45
2017-11-16T11:03:48.370Z,9.39
2017-11-16T11:06:15.149Z,9.43
2017-11-16T11:11:32.307Z,9.43
2017-11-16T11:16:31.832Z,8.95
2017-11-16T11:18:58.314Z,9.44
2017-11-16T11:21:24.324Z,9.32
2017-11-16T11:23:50.191Z,9.33
2017-11-16T11:26:16.336Z,9.29
2017-11-16T11:28:43.420Z,9.24
2017-11-16T11:31:10.464Z,9.29
2017-11-16T11:33:36.370Z,9.27
2017-11-16T11:36:02.299Z,9.34
2017-11-16T11:38:29.682Z,9.32
2017-11-16T11:40:56.932Z,9.38
2017-11-16T11:43:23.362Z,9.29
2017-11-16T11:45:50.534Z,9.17
2017-11-16T11:48:20.165Z,9.22
2017-11-16T11:50:46.143Z,9.26
2017-11-16T11:53:12.831Z,9.32
2017-11-16T11:55:39.353Z,9.28
2017-11-16T11:58:05.258Z,9.31
2017-11-16T12:00:31.887Z,9.27
2017-11-16T12:02:57.826Z,9.32
2017-11-16T12:05:24.753Z,9.32
2017-11-16T12:07:50.609Z,9.28
2017-11-16T12:10:16.615Z,9.13
2017-11-16T12:12:42.887Z,9.17
2017-11-16T12:15:09.489Z,9.19
2017-11-16T12:17:35.325Z,9.10
2017-11-16T12:20:01.362Z,9.20
2017-11-16T12:22:29.111Z,9.17
2017-11-16T12:24:55.557Z,9.01
2017-11-16T12:27:21.538Z,9.05
2017-11-16T12:29:52.622Z,9.11
2017-11-16T12:32:19.681Z,9.04
2017-11-16T12:34:48.623Z,9.01
2017-11-16T12:37:17.429Z,8.89
2017-11-16T12:39:44.554Z,8.89
2017-11-16T12:53:09.284Z,8.81
2017-11-16T12:55:35.281Z,8.78
2017-11-16T12:58:01.134Z,8.78
2017-11-16T13:00:27.547Z,8.79
2017-11-16T13:02:53.403Z,8.84
2017-11-16T13:05:19.563Z,8.91
2017-11-16T13:07:45.883Z,8.89
2017-11-16T13:10:12.680Z,8.87
2017-11-16T13:12:38.523Z,8.92
2017-11-16T13:15:04.959Z,8.98
2017-11-16T13:17:31.016Z,8.96
2017-11-16T13:19:56.830Z,8.84
2017-11-16T13:22:22.796Z,8.78
2017-11-16T13:24:49.283Z,8.81
2017-11-16T13:27:15.065Z,8.87
2017-11-16T13:29:41.438Z,8.76
2017-11-16T13:32:07.958Z,8.71
2017-11-16T13:34:33.737Z,8.69
2017-11-16T13:36:59.860Z,8.77
2017-11-16T13:39:25.680Z,8.77
2017-11-16T13:41:52.338Z,8.73
2017-11-16T13:44:19.189Z,8.73
2017-11-16T13:46:45.426Z,8.71
2017-11-16T13:49:11.398Z,8.63
2017-11-16T13:51:37.300Z,8.71
2017-11-16T13:54:03.681Z,8.65
2017-11-16T13:56:30.476Z,8.69
2017-11-16T13:58:57.020Z,8.73
2017-11-16T14:01:25.558Z,8.66
2017-11-16T14:03:51.736Z,8.59
2017-11-16T14:06:17.597Z,8.60
2017-11-16T14:08:51.080Z,8.61
2017-11-16T14:11:17.964Z,8.66
2017-11-16T14:13:44.725Z,8.62
2017-11-16T14:16:11.391Z,8.65
2017-11-16T14:18:38.428Z,8.65
2017-11-16T14:21:05.148Z,8.67
2017-11-16T14:23:31.558Z,8.65
2017-11-16T14:25:58.226Z,8.56
2017-11-16T14:28:25.047Z,8.60
2017-11-16T14:30:52.388Z,8.63
2017-11-16T14:33:19.025Z,8.65
2017-11-16T14:35:45.600Z,8.57
2017-11-16T14:38:11.570Z,8.57
2017-11-16T14:40:37.418Z,8.58
2017-11-16T14:43:03.579Z,8.57
2017-11-16T14:45:29.553Z,8.61
2017-11-16T14:47:55.357Z,8.54
2017-11-16T14:50:21.145Z,8.48
2017-11-16T14:52:46.929Z,8.62
2017-11-16T14:55:12.862Z,8.53
2017-11-16T14:57:38.659Z,8.55
2017-11-16T15:00:04.486Z,8.50
2017-11-16T15:02:30.326Z,8.54
2017-11-16T15:04:56.099Z,8.56
2017-11-16T15:07:21.907Z,8.57
2017-11-16T15:09:47.728Z,8.64
2017-11-16T15:12:13.513Z,8.65
2017-11-16T15:14:39.292Z,8.63
2017-11-16T15:17:05.103Z,8.64
2017-11-16T15:19:30.890Z,8.65
2017-11-16T15:21:56.667Z,8.61
2017-11-16T15:24:22.469Z,8.66
2017-11-16T15:26:48.257Z,8.61
2017-11-16T15:29:14.072Z,8.64
2017-11-16T15:31:39.887Z,8.65
2017-11-16T15:34:05.688Z,8.64
2017-11-16T15:36:31.482Z,8.65
2017-11-16T15:38:57.292Z,8.71
2017-11-16T15:41:23.085Z,8.64
2017-11-16T15:43:48.870Z,8.64
2017-11-16T15:46:14.668Z,8.68
2017-11-16T15:48:40.466Z,8.61
2017-11-16T15:51:06.478Z,8.64
2017-11-16T15:53:32.488Z,8.60
2017-11-16T15:55:58.279Z,8.74
2017-11-16T15:58:24.100Z,8.71
2017-11-16T16:00:49.937Z,8.74
2017-11-16T16:03:15.745Z,8.76
2017-11-16T16:05:41.526Z,8.67
2017-11-16T16:08:07.312Z,8.76
2017-11-16T16:10:33.097Z,8.68
2017-11-16T16:12:58.910Z,8.71
2017-11-16T16:15:24.725Z,8.65
2017-11-16T16:17:50.515Z,8.71
2017-11-16T16:20:16.323Z,8.73
2017-11-16T16:22:42.096Z,8.78
2017-11-16T16:25:07.864Z,8.66
2017-11-16T16:27:33.693Z,8.76
2017-11-16T16:29:59.500Z,8.77
2017-11-16T16:32:25.300Z,8.71
2017-11-16T16:34:51.113Z,8.68
2017-11-16T16:37:16.908Z,8.71
2017-11-16T16:39:42.696Z,8.72
2017-11-16T16:42:08.487Z,8.73
2017-11-16T16:44:34.262Z,8.67
2017-11-16T16:47:00.228Z,8.78
2017-11-16T16:49:26.039Z,8.76
2017-11-16T16:51:51.853Z,8.71
2017-11-16T16:54:17.665Z,8.74
2017-11-16T16:56:43.453Z,8.73
2017-11-16T16:59:09.245Z,8.74
2017-11-16T17:01:35.072Z,8.79
2017-11-16T17:04:00.856Z,8.76
2017-11-16T17:06:26.630Z,8.90
2017-11-16T17:08:52.452Z,8.79
2017-11-16T17:11:18.277Z,8.75
2017-11-16T17:13:44.058Z,8.84
2017-11-16T17:16:09.860Z,8.80
2017-11-16T17:18:35.653Z,8.79
2017-11-16T17:21:01.455Z,8.79
2017-11-16T17:23:27.247Z,8.82
2017-11-16T17:25:53.031Z,8.88
2017-11-16T17:28:19.200Z,8.80
2017-11-16T17:30:44.992Z,8.77
2017-11-16T17:33:10.786Z,8.77
2017-11-16T17:35:36.600Z,8.79
2017-11-16T17:38:02.393Z,8.78
2017-11-16T17:40:28.180Z,8.81
2017-11-16T17:42:53.984Z,8.83
2017-11-16T17:45:19.803Z,8.84
2017-11-16T17:47:45.589Z,8.81
2017-11-16T17:50:11.670Z,8.80
2017-11-16T17:52:37.449Z,8.82
2017-11-16T17:55:03.240Z,8.86
2017-11-16T17:57:29.023Z,8.91
2017-11-16T17:59:54.793Z,8.96
2017-11-16T18:02:20.585Z,8.92
2017-11-16T18:04:46.379Z,8.91
2017-11-16T18:07:12.169Z,8.88
2017-11-16T18:09:38.125Z,8.93
2017-11-16T18:12:03.936Z,8.90
2017-11-16T18:14:29.737Z,8.91
2017-11-16T18:16:55.551Z,8.88
2017-11-16T18:19:21.337Z,8.83
2017-11-16T18:21:47.120Z,8.91
2017-11-16T18:24:12.940Z,8.90
2017-11-16T18:26:38.728Z,8.89
2017-11-16T18:29:04.518Z,8.91
2017-11-16T18:31:30.481Z,8.88
2017-11-16T18:33:56.276Z,8.93
2017-11-16T18:36:22.056Z,8.91
2017-11-16T18:38:47.860Z,8.90
2017-11-16T18:41:13.636Z,8.92
2017-11-16T18:43:39.404Z,8.92
2017-11-16T18:46:05.248Z,8.95
2017-11-16T18:48:31.039Z,8.94
2017-11-16T18:50:56.889Z,8.91
2017-11-16T18:53:22.705Z,8.90
2017-11-16T18:55:48.491Z,8.85
2017-11-16T18:58:14.293Z,8.96
2017-11-16T19:00:40.108Z,8.97
2017-11-16T19:03:05.903Z,8.93
2017-11-16T19:05:31.701Z,8.92
2017-11-16T19:07:57.481Z,8.93
2017-11-16T19:10:23.255Z,8.97
2017-11-16T19:12:49.093Z,8.97
2017-11-16T19:15:14.880Z,8.98
2017-11-16T19:17:40.704Z,8.96
2017-11-16T19:20:06.509Z,8.87
2017-11-16T19:22:32.288Z,8.91
2017-11-16T19:24:58.105Z,8.86
2017-11-16T19:27:24.097Z,8.93
2017-11-16T19:29:49.911Z,8.91
2017-11-16T19:32:15.706Z,8.99
2017-11-16T19:34:41.530Z,8.88
2017-11-16T19:37:07.328Z,8.89
2017-11-16T19:39:33.172Z,8.88
2017-11-16T19:41:59.026Z,8.86
2017-11-16T19:44:24.812Z,8.86
2017-11-16T19:46:50.955Z,8.80
2017-11-16T19:49:16.747Z,8.83
2017-11-16T19:51:42.543Z,8.79
2017-11-16T19:54:08.525Z,8.77
2017-11-16T19:56:34.426Z,8.71
2017-11-16T19:59:00.211Z,8.71
2017-11-16T20:01:26.049Z,8.75
2017-11-16T20:03:51.882Z,8.80
2017-11-16T20:06:17.706Z,8.79
2017-11-16T20:08:43.513Z,8.77
2017-11-16T20:11:09.362Z,8.77
2017-11-16T20:13:35.145Z,8.81
2017-11-16T20:16:00.927Z,8.81
2017-11-16T20:18:26.724Z,8.82
2017-11-16T20:20:52.550Z,8.80
2017-11-16T20:23:18.341Z,8.82
2017-11-16T20:25:44.335Z,8.83
2017-11-16T20:28:10.158Z,8.82
2017-11-16T20:30:35.957Z,8.86
2017-11-16T20:33:01.740Z,8.84
2017-11-16T20:35:27.549Z,8.87
2017-11-16T20:37:55.369Z,8.84
2017-11-16T20:40:27.331Z,8.84
2017-11-16T20:48:55.623Z,8.87
2017-11-16T20:51:23.292Z,8.88
2017-11-16T20:53:51.915Z,8.91
2017-11-16T20:56:17.751Z,8.92
2017-11-16T20:58:43.558Z,8.92
2017-11-16T21:01:09.376Z,8.90
2017-11-16T21:03:35.189Z,8.98
2017-11-16T21:06:00.978Z,8.94
2017-11-16T21:08:26.765Z,9.02
2017-11-16T21:10:53.672Z,8.99
2017-11-16T21:13:19.477Z,8.95
2017-11-16T21:15:45.260Z,9.01
2017-11-16T21:18:11.047Z,8.98
2017-11-16T21:20:36.848Z,8.96
2017-11-16T21:23:02.663Z,9.01
2017-11-16T21:25:28.453Z,9.04
2017-11-16T21:27:54.241Z,9.04
2017-11-16T21:30:20.049Z,9.05
2017-11-16T21:32:45.844Z,9.05
2017-11-16T21:35:11.835Z,9.09
2017-11-16T21:37:37.620Z,9.04
2017-11-16T21:40:03.408Z,9.11
2017-11-16T21:42:29.530Z,9.04
2017-11-16T21:44:55.301Z,9.03
2017-11-16T21:47:21.101Z,9.07
2017-11-16T21:49:46.891Z,9.07
2017-11-16T21:52:12.664Z,9.02
2017-11-16T21:54:38.794Z,8.98
2017-11-16T21:57:04.587Z,9.00
2017-11-16T21:59:30.372Z,9.08
2017-11-16T22:01:56.186Z,8.97
2017-11-16T22:04:21.980Z,9.02
2017-11-16T22:06:47.760Z,9.05
2017-11-16T22:09:13.804Z,9.11
2017-11-16T22:11:39.814Z,9.14
2017-11-16T22:14:05.609Z,9.14
2017-11-16T22:16:31.395Z,9.22
2017-11-16T22:18:57.176Z,9.14
2017-11-16T22:21:22.992Z,9.10
2017-11-16T22:23:48.785Z,9.13
2017-11-16T22:26:14.566Z,9.13
2017-11-16T22:28:40.372Z,9.13
2017-11-16T22:31:06.175Z,9.11
2017-11-16T22:33:31.955Z,9.21
2017-11-16T22:35:57.768Z,9.21
2017-11-16T22:38:23.552Z,9.22
2017-11-16T22:40:49.342Z,9.26
2017-11-16T22:43:15.141Z,9.21
2017-11-16T22:45:40.912Z,9.25
2017-11-16T22:48:06.684Z,9.27
2017-11-16T22:50:32.476Z,9.45
2017-11-16T22:52:58.258Z,9.16
2017-11-16T22:55:24.053Z,9.28
2017-11-16T22:57:49.860Z,9.12
2017-11-16T23:00:15.660Z,9.29
2017-11-16T23:02:41.437Z,9.23
2017-11-16T23:05:07.228Z,9.18
2017-11-16T23:07:33.001Z,9.10
2017-11-16T23:09:58.780Z,9.04
2017-11-16T23:12:25.081Z,9.09
2017-11-16T23:14:50.865Z,9.22
2017-11-16T23:17:16.647Z,8.99
2017-11-16T23:19:43.352Z,9.03
2017-11-16T23:22:09.131Z,9.11
2017-11-16T23:24:34.923Z,9.13
2017-11-16T23:27:00.736Z,8.94
2017-11-16T23:29:26.511Z,8.83
2017-11-16T23:31:52.287Z,9.05
2017-11-16T23:34:18.259Z,8.98
2017-11-16T23:36:44.052Z,9.12
2017-11-16T23:39:09.835Z,8.94
2017-11-16T23:41:35.628Z,8.97
2017-11-16T23:44:01.408Z,9.25
2017-11-16T23:46:27.183Z,9.36
2017-11-16T23:48:52.998Z,9.24
2017-11-16T23:51:18.792Z,9.21
2017-11-16T23:53:44.573Z,8.92
2017-11-16T23:56:10.373Z,8.96
2017-11-16T23:58:36.156Z,8.92
